Decoded Metar for LFOB (BEAUVAIS in FRANCE) (IATA:BVA) | Meteo·Mobile Aviation Weather
aviador You're here:

LFOB Decoded Metar

BEAUVAIS in FRANCE
Report Time2018-08-21 16:00:00
UTC Time2018-08-21 16:06:28
Flight Rules vfr VFR
Wind300° at 04 kt
W.Decomp.*RWY 30: 4.0 kt HW 0.1 kt RCW
RWY 22: 0.6 kt HW 4.0 kt RCW
W.Rank300° ranks 6
Current wind is below 300° avg. (6.6)
Visibility9999 m
Phenomena:N/A
Clouds:N/A
Expected CloudBase > 2,800 ft AGL from Temp-Dew spread
CeilingNone
Temp24°C (ISA +10)
Dew Point17°C (65% RH)
QNH1019 hPa
Density Alt1,549 ft
Elevation364 ft
Report Wrong Elevation
Raw Report
METAR LFOB 211600Z AUTO 30004KT 270V330 CAVOK 24/17 Q1019 NOSIG=

Extra information for LFOB:More info

Metar Taf Metar & Taf Last 4 Metars F.Rules Stats Wind Profile Meteogram Temp Stats Airport Information Weather charts Add Link Nearby VenuesMetar ALERT Operation Metar Decoded Social comments